Strona główna
METAR-TAF:

METAR-TAF

Lotnisko :

Meriden-Markham Municipal Airport

Meriden, Connecticut, Stany Zjednoczone

Szerokość geograficzna: 41-30-35N, Długość geograficzna: 072-49-40W, wysokość: 31 m

Aktualna obserwacja pogody

Raport powstał 27 minut temu, godzina 21:53 UTC
Cisza
Temperatura -2°C
Wilgotność 74%
Ciśnienie 1031 hPa
Widzialność: 16.1 km
bezchmurnie

METAR: KMMK 082153Z AUTO 00000KT 10SM CLR M02/M06 A3044 RMK AO2 SLP312 T10171061

czas: 17:20 (22:20 UTC)


TAF: brakujący

Obserwacja i prognoza pogody dla ponad 4000 lotnisk (raport METAR i TAF).

Dostępne stacje oznaczono żółtymi i czerwonymi punktami na mapie.

Najedź kursorem aby zobaczyć nazwę stacji.

Kliknij aby zobaczyć obserwacje i prognozy pogody.

Aby zmienić mapę: kliknij na zielony przycisk z czarnym krzyżykiem, aby powiększyć; na zielony przycisk z myślnikiem, aby pomniejszyć; na zielone strzałki, aby przejść do map sąsiednich.


METAR-TAF: